createdAt,value
2017-12-02T00:02:22.581Z,10.50
2017-12-02T00:04:50.053Z,10.50
2017-12-02T00:07:17.505Z,10.50
2017-12-02T00:09:44.961Z,10.50
2017-12-02T00:12:12.422Z,10.50
2017-12-02T00:14:40.666Z,10.50
2017-12-02T00:17:08.153Z,10.50
2017-12-02T00:19:36.358Z,10.50
2017-12-02T00:22:04.606Z,10.50
2017-12-02T00:24:32.061Z,10.50
2017-12-02T00:26:59.509Z,10.50
2017-12-02T00:29:26.966Z,10.50
2017-12-02T00:31:54.438Z,10.50
2017-12-02T00:34:21.892Z,10.50
2017-12-02T00:36:49.349Z,10.50
2017-12-02T00:39:16.811Z,10.40
2017-12-02T00:41:44.261Z,10.50
2017-12-02T00:44:11.722Z,10.50
2017-12-02T00:46:39.166Z,10.50
2017-12-02T00:49:06.633Z,10.50
2017-12-02T00:51:34.077Z,10.50
2017-12-02T00:54:02.322Z,10.50
2017-12-02T00:56:29.786Z,10.40
2017-12-02T00:58:57.260Z,10.50
2017-12-02T01:01:24.714Z,10.50
2017-12-02T01:03:52.198Z,10.50
2017-12-02T01:06:19.642Z,10.40
2017-12-02T01:08:47.113Z,10.50
2017-12-02T01:11:14.567Z,10.50
2017-12-02T01:13:42.031Z,10.40
2017-12-02T01:16:09.539Z,10.40
2017-12-02T01:18:37.022Z,10.30
2017-12-02T01:21:04.472Z,10.30
2017-12-02T01:23:31.933Z,10.30
2017-12-02T01:26:00.214Z,10.30
2017-12-02T01:28:27.663Z,10.20
2017-12-02T01:30:55.152Z,10.20
2017-12-02T01:33:22.597Z,10.20
2017-12-02T01:35:50.067Z,10.10
2017-12-02T01:38:18.289Z,10.00
2017-12-02T01:40:45.770Z,10.00
2017-12-02T01:43:13.981Z,9.90
2017-12-02T01:45:41.437Z,9.90
2017-12-02T01:48:09.655Z,9.80
2017-12-02T01:50:37.165Z,9.80
2017-12-02T01:53:04.613Z,9.80
2017-12-02T01:55:32.841Z,9.60
2017-12-02T01:58:00.299Z,9.60
2017-12-02T02:00:27.770Z,9.60
2017-12-02T02:02:55.238Z,9.70
2017-12-02T02:05:22.718Z,9.60
2017-12-02T02:07:50.178Z,9.50
2017-12-02T02:10:17.633Z,9.50
2017-12-02T02:12:45.098Z,9.50
2017-12-02T02:15:13.313Z,9.50
2017-12-02T02:17:40.774Z,9.50
2017-12-02T02:20:08.234Z,9.50
2017-12-02T02:22:35.694Z,9.50
2017-12-02T02:25:03.150Z,9.50
2017-12-02T02:27:30.606Z,9.50
2017-12-02T02:29:58.815Z,9.50
2017-12-02T02:32:26.282Z,9.40
2017-12-02T02:34:53.742Z,9.40
2017-12-02T02:37:21.199Z,9.40
2017-12-02T02:39:49.427Z,9.40
2017-12-02T02:42:16.898Z,9.40
2017-12-02T02:44:44.362Z,9.30
2017-12-02T02:47:11.846Z,9.30
2017-12-02T02:49:39.310Z,9.20
2017-12-02T02:52:07.539Z,9.20
2017-12-02T02:54:35.017Z,9.20
2017-12-02T02:57:02.469Z,9.20
2017-12-02T02:59:29.949Z,9.20
2017-12-02T03:01:57.405Z,9.20
2017-12-02T03:04:24.870Z,9.10
2017-12-02T03:06:52.325Z,9.10
2017-12-02T03:09:19.779Z,9.10
2017-12-02T03:11:47.240Z,9.00
2017-12-02T03:14:14.693Z,9.10
2017-12-02T03:16:42.153Z,9.10
2017-12-02T03:19:09.637Z,9.00
2017-12-02T03:21:37.088Z,9.00
2017-12-02T03:24:04.542Z,9.00
2017-12-02T03:26:31.989Z,9.00
2017-12-02T03:29:00.230Z,9.00
2017-12-02T03:31:27.711Z,8.90
2017-12-02T03:33:55.142Z,9.00
2017-12-02T03:36:22.598Z,9.00
2017-12-02T03:38:50.055Z,8.90
2017-12-02T03:41:17.518Z,8.90
2017-12-02T03:43:44.969Z,8.80
2017-12-02T03:46:12.431Z,8.90
2017-12-02T03:48:39.886Z,9.00
2017-12-02T03:51:07.369Z,8.90
2017-12-02T03:53:34.821Z,8.90
2017-12-02T03:56:02.287Z,8.90
2017-12-02T03:58:29.740Z,8.80
2017-12-02T04:00:57.202Z,8.90
2017-12-02T04:03:24.657Z,8.80
2017-12-02T04:05:52.114Z,8.80
2017-12-02T04:08:19.574Z,8.70
2017-12-02T04:10:47.817Z,8.80
2017-12-02T04:13:15.270Z,8.80
2017-12-02T04:15:42.764Z,8.80
2017-12-02T04:18:10.207Z,8.70
2017-12-02T04:20:37.656Z,8.70
2017-12-02T04:23:05.118Z,8.80
2017-12-02T04:25:32.583Z,8.80
2017-12-02T04:28:00.042Z,8.70
2017-12-02T04:30:27.510Z,8.70
2017-12-02T04:32:54.953Z,8.70
2017-12-02T04:35:22.402Z,8.70
2017-12-02T04:37:50.642Z,8.70
2017-12-02T04:40:18.094Z,8.70
2017-12-02T04:42:45.620Z,8.60
2017-12-02T04:45:13.782Z,8.60
2017-12-02T04:47:41.235Z,8.50
2017-12-02T04:50:08.690Z,8.60
2017-12-02T04:52:36.353Z,8.50
2017-12-02T04:55:03.810Z,8.60
2017-12-02T04:57:31.267Z,8.70
2017-12-02T04:59:58.712Z,8.70
2017-12-02T05:02:26.170Z,8.70
2017-12-02T05:04:53.638Z,8.70
2017-12-02T05:07:21.106Z,8.70
2017-12-02T05:09:48.621Z,8.80
2017-12-02T05:12:16.077Z,8.70
2017-12-02T05:14:43.550Z,8.80
2017-12-02T05:17:11.031Z,8.80
2017-12-02T05:19:38.482Z,8.80
2017-12-02T05:22:05.930Z,8.80
2017-12-02T05:24:33.398Z,8.80
2017-12-02T05:27:00.845Z,8.80
2017-12-02T05:29:28.301Z,8.80
2017-12-02T05:31:55.773Z,8.80
2017-12-02T05:34:23.231Z,8.80
2017-12-02T05:36:50.682Z,8.60
2017-12-02T05:39:18.138Z,8.60
2017-12-02T05:41:45.598Z,8.80
2017-12-02T05:44:13.062Z,8.80
2017-12-02T05:46:40.516Z,8.80
2017-12-02T05:49:08.754Z,8.90
2017-12-02T05:51:36.209Z,8.90
2017-12-02T05:54:03.675Z,8.80
2017-12-02T05:56:31.139Z,8.90
2017-12-02T05:58:58.603Z,8.90
2017-12-02T06:01:26.078Z,8.90
2017-12-02T06:03:53.533Z,9.00
2017-12-02T06:06:20.996Z,9.00
2017-12-02T06:08:48.441Z,9.00
2017-12-02T06:11:15.907Z,9.00
2017-12-02T06:13:43.363Z,8.90
2017-12-02T06:16:10.819Z,8.90
2017-12-02T06:18:38.273Z,8.80
2017-12-02T06:21:05.729Z,8.90
2017-12-02T06:23:33.931Z,8.90
2017-12-02T06:26:01.410Z,8.90
2017-12-02T06:28:29.642Z,8.90
2017-12-02T06:30:57.097Z,8.90
2017-12-02T06:33:24.554Z,8.90
2017-12-02T06:35:52.007Z,8.90
2017-12-02T06:38:19.465Z,8.90
2017-12-02T06:40:46.910Z,9.00
2017-12-02T06:43:14.382Z,8.90
2017-12-02T06:45:41.825Z,8.90
2017-12-02T06:48:09.301Z,8.90
2017-12-02T06:50:36.752Z,8.90
2017-12-02T06:53:04.208Z,8.90
2017-12-02T06:55:31.658Z,8.90
2017-12-02T06:57:59.132Z,8.90
2017-12-02T07:00:26.586Z,8.80
2017-12-02T07:02:54.042Z,8.90
2017-12-02T07:05:21.514Z,8.90
2017-12-02T07:07:48.974Z,8.80
2017-12-02T07:10:16.421Z,8.80
2017-12-02T07:12:44.658Z,8.70
2017-12-02T07:15:12.122Z,8.70
2017-12-02T07:17:39.577Z,8.80
2017-12-02T07:20:07.042Z,8.70
2017-12-02T07:22:34.518Z,8.70
2017-12-02T07:25:01.986Z,8.70
2017-12-02T07:27:29.455Z,8.70
2017-12-02T07:29:57.682Z,8.50
2017-12-02T07:32:25.137Z,8.50
2017-12-02T07:34:52.597Z,8.60
2017-12-02T07:37:20.807Z,8.70
2017-12-02T07:39:48.266Z,8.70
2017-12-02T07:42:15.717Z,8.80
2017-12-02T07:44:43.181Z,8.70
2017-12-02T07:47:10.650Z,8.60
2017-12-02T07:49:38.869Z,8.70
2017-12-02T07:52:07.083Z,8.70
2017-12-02T07:54:34.542Z,8.70
2017-12-02T07:57:01.997Z,8.80
2017-12-02T07:59:30.976Z,8.80
2017-12-02T08:01:58.437Z,8.80
2017-12-02T08:04:25.887Z,8.90
2017-12-02T08:06:53.345Z,8.80
2017-12-02T08:09:20.813Z,8.70
2017-12-02T08:11:48.277Z,8.80
2017-12-02T08:14:15.738Z,8.90
2017-12-02T08:16:43.189Z,9.00
2017-12-02T08:19:10.645Z,9.00
2017-12-02T08:21:38.103Z,8.80
2017-12-02T08:24:05.552Z,8.90
2017-12-02T08:26:33.027Z,8.90
2017-12-02T08:29:00.482Z,8.80
2017-12-02T08:31:27.938Z,8.80
2017-12-02T08:33:55.390Z,8.80
2017-12-02T08:36:22.852Z,8.90
2017-12-02T08:38:50.300Z,8.80
2017-12-02T08:41:17.751Z,8.80
2017-12-02T08:43:45.210Z,8.80
2017-12-02T08:46:12.667Z,8.80
2017-12-02T08:48:40.118Z,8.90
2017-12-02T08:51:07.572Z,8.90
2017-12-02T08:53:35.021Z,8.90
2017-12-02T08:56:03.259Z,9.00
2017-12-02T08:58:30.717Z,9.00
2017-12-02T09:00:58.177Z,8.90
2017-12-02T09:03:26.401Z,8.90
2017-12-02T09:05:53.855Z,8.90
2017-12-02T09:08:22.080Z,9.00
2017-12-02T09:10:49.539Z,9.00
2017-12-02T09:13:16.996Z,9.00
2017-12-02T09:15:45.207Z,8.90
2017-12-02T09:18:13.428Z,9.10
2017-12-02T09:20:41.647Z,9.00
2017-12-02T09:23:09.127Z,9.00
2017-12-02T09:25:36.587Z,9.10
2017-12-02T09:28:04.037Z,9.10
2017-12-02T09:30:31.498Z,9.00
2017-12-02T09:32:58.958Z,8.90
2017-12-02T09:35:27.182Z,8.70
2017-12-02T09:37:54.639Z,8.70
2017-12-02T09:40:22.859Z,8.70
2017-12-02T09:42:51.086Z,8.80
2017-12-02T09:45:19.309Z,8.80
2017-12-02T09:47:47.539Z,8.80
2017-12-02T09:50:15.026Z,8.70
2017-12-02T09:52:42.494Z,8.80
2017-12-02T09:55:09.970Z,8.90
2017-12-02T09:57:37.425Z,8.90
2017-12-02T10:00:04.886Z,9.00
2017-12-02T10:02:32.343Z,9.00
2017-12-02T10:04:59.802Z,9.00
2017-12-02T10:07:27.246Z,9.00
2017-12-02T10:09:54.701Z,8.90
2017-12-02T10:12:22.926Z,8.90
2017-12-02T10:14:50.390Z,8.90
2017-12-02T10:17:17.845Z,9.00
2017-12-02T10:19:46.082Z,9.00
2017-12-02T10:22:13.531Z,9.10
2017-12-02T10:24:40.982Z,9.00
2017-12-02T10:27:08.442Z,9.00
2017-12-02T10:29:35.898Z,8.90
2017-12-02T10:32:03.359Z,9.00
2017-12-02T10:34:30.817Z,8.90
2017-12-02T10:36:58.266Z,9.00
2017-12-02T10:39:25.725Z,9.10
2017-12-02T10:41:53.180Z,9.10
2017-12-02T10:44:20.635Z,9.10
2017-12-02T10:46:48.102Z,9.20
2017-12-02T10:49:16.322Z,9.20
2017-12-02T10:51:43.784Z,9.20
2017-12-02T10:54:11.248Z,9.10
2017-12-02T10:56:39.478Z,9.10
2017-12-02T10:59:06.931Z,9.10
2017-12-02T11:01:34.418Z,9.00
2017-12-02T11:04:02.639Z,9.00
2017-12-02T11:06:30.113Z,9.00
2017-12-02T11:08:58.333Z,9.20
2017-12-02T11:11:25.818Z,9.20
2017-12-02T11:13:53.276Z,9.10
2017-12-02T11:16:20.744Z,9.20
2017-12-02T11:18:48.197Z,9.20
2017-12-02T11:21:15.670Z,9.20
2017-12-02T11:23:43.126Z,9.10
2017-12-02T11:26:10.586Z,9.10
2017-12-02T11:28:38.041Z,9.10
2017-12-02T11:31:05.499Z,9.10
2017-12-02T11:33:32.958Z,9.10
2017-12-02T11:36:00.425Z,9.00
2017-12-02T11:38:27.886Z,9.00
2017-12-02T11:40:55.340Z,9.10
2017-12-02T11:43:23.557Z,9.00
2017-12-02T11:45:51.010Z,9.00
2017-12-02T11:48:18.468Z,9.10
2017-12-02T11:50:45.921Z,9.10
2017-12-02T11:53:14.153Z,9.00
2017-12-02T11:55:41.602Z,9.00
2017-12-02T11:58:09.638Z,9.00
2017-12-02T12:00:37.097Z,8.90
2017-12-02T12:03:05.309Z,9.10
2017-12-02T12:05:32.794Z,9.00
2017-12-02T12:08:00.246Z,9.00
2017-12-02T12:10:27.728Z,9.00
2017-12-02T12:12:55.977Z,8.90
2017-12-02T12:15:23.431Z,8.90
2017-12-02T12:17:50.911Z,8.90
2017-12-02T12:20:18.341Z,9.00
2017-12-02T12:22:45.794Z,8.90
2017-12-02T12:25:14.034Z,9.00
2017-12-02T12:27:41.531Z,8.90
2017-12-02T12:30:08.991Z,8.90
2017-12-02T12:32:36.443Z,8.80
2017-12-02T12:35:03.893Z,8.90
2017-12-02T12:37:31.349Z,8.90
2017-12-02T12:39:58.808Z,8.80
2017-12-02T12:42:26.246Z,8.70
2017-12-02T12:44:53.723Z,8.80
2017-12-02T12:47:21.187Z,8.60
2017-12-02T12:49:48.682Z,8.70
2017-12-02T12:52:16.912Z,8.60
2017-12-02T12:54:44.374Z,8.60
2017-12-02T12:57:11.864Z,8.50
2017-12-02T12:59:39.326Z,8.60
2017-12-02T13:02:07.536Z,8.80
2017-12-02T13:04:35.771Z,8.80
2017-12-02T13:07:03.245Z,8.80
2017-12-02T13:09:31.458Z,8.80
2017-12-02T13:11:58.963Z,8.80
2017-12-02T13:14:26.401Z,8.70
2017-12-02T13:16:53.916Z,8.60
2017-12-02T13:19:21.321Z,8.70
2017-12-02T13:21:48.778Z,8.60
2017-12-02T13:24:16.262Z,8.60
2017-12-02T13:26:44.484Z,8.50
2017-12-02T13:29:11.942Z,8.50
2017-12-02T13:31:39.397Z,8.40
2017-12-02T13:34:06.836Z,8.40
2017-12-02T13:36:35.068Z,8.50
2017-12-02T13:39:02.525Z,8.40
2017-12-02T13:41:29.986Z,8.50
2017-12-02T13:43:58.223Z,8.40
2017-12-02T13:46:25.665Z,8.40
2017-12-02T13:48:53.146Z,8.30
2017-12-02T13:51:20.589Z,8.20
2017-12-02T13:53:48.049Z,8.20
2017-12-02T13:56:15.503Z,8.20
2017-12-02T13:58:42.969Z,8.40
2017-12-02T14:01:10.424Z,8.40
2017-12-02T14:03:38.169Z,8.40
2017-12-02T14:06:05.696Z,8.50
2017-12-02T14:08:33.918Z,8.50
2017-12-02T14:11:01.378Z,8.50
2017-12-02T14:13:28.847Z,8.50
2017-12-02T14:15:56.360Z,8.60
2017-12-02T14:18:23.818Z,8.50
2017-12-02T14:20:51.275Z,8.40
2017-12-02T14:23:18.748Z,8.30
2017-12-02T14:25:46.234Z,8.20
2017-12-02T14:28:13.696Z,8.30
2017-12-02T14:30:41.151Z,8.20
2017-12-02T14:33:08.714Z,8.30
2017-12-02T14:35:36.171Z,8.30
2017-12-02T14:38:03.624Z,8.30
2017-12-02T14:40:31.075Z,8.20
2017-12-02T14:42:58.570Z,8.20
2017-12-02T14:45:26.823Z,8.30
2017-12-02T14:47:54.305Z,8.30
2017-12-02T14:50:22.553Z,8.40
2017-12-02T14:52:50.014Z,8.40
2017-12-02T14:55:17.461Z,8.40
2017-12-02T14:57:44.922Z,8.30
2017-12-02T15:00:12.409Z,8.30
2017-12-02T15:02:40.630Z,8.30
2017-12-02T15:05:08.085Z,8.20
2017-12-02T15:07:35.548Z,8.30
2017-12-02T15:10:03.066Z,8.30
2017-12-02T15:12:30.521Z,8.20
2017-12-02T15:14:58.753Z,8.10
2017-12-02T15:17:26.249Z,8.10
2017-12-02T15:19:53.906Z,8.10
2017-12-02T15:22:21.358Z,8.10
2017-12-02T15:24:49.586Z,8.10
2017-12-02T15:27:17.047Z,8.10
2017-12-02T15:29:44.502Z,8.20
2017-12-02T15:32:11.962Z,8.20
2017-12-02T15:34:39.419Z,8.20
2017-12-02T15:37:06.871Z,8.30
2017-12-02T15:39:34.331Z,8.20
2017-12-02T15:42:01.793Z,8.20
2017-12-02T15:44:29.246Z,8.30
2017-12-02T15:46:56.710Z,8.10
2017-12-02T15:49:24.308Z,8.10
2017-12-02T15:51:51.775Z,8.20
2017-12-02T15:54:19.994Z,8.20
2017-12-02T15:56:48.427Z,8.20
2017-12-02T15:59:15.954Z,8.20
2017-12-02T16:01:43.422Z,8.10
2017-12-02T16:04:10.896Z,8.10
2017-12-02T16:06:38.413Z,8.10
2017-12-02T16:09:05.865Z,8.20
2017-12-02T16:11:33.336Z,8.20
2017-12-02T16:14:00.839Z,8.10
2017-12-02T16:16:29.054Z,8.20
2017-12-02T16:18:56.523Z,8.20
2017-12-02T16:21:23.992Z,8.10
2017-12-02T16:23:51.441Z,8.10
2017-12-02T16:26:18.899Z,8.10
2017-12-02T16:28:46.358Z,8.10
2017-12-02T16:31:13.814Z,8.00
2017-12-02T16:33:41.274Z,8.10
2017-12-02T16:36:08.718Z,8.00
2017-12-02T16:38:36.175Z,7.90
2017-12-02T16:41:03.622Z,7.90
2017-12-02T16:43:31.091Z,7.90
2017-12-02T16:45:58.542Z,7.90
2017-12-02T16:48:26.015Z,7.90
2017-12-02T16:50:53.462Z,7.80
2017-12-02T16:53:21.681Z,7.90
2017-12-02T16:55:49.143Z,7.80
2017-12-02T16:58:16.597Z,7.90
2017-12-02T17:00:44.815Z,8.00
2017-12-02T17:03:12.269Z,8.00
2017-12-02T17:05:39.730Z,8.00
2017-12-02T17:08:07.958Z,8.00
2017-12-02T17:10:35.414Z,7.90
2017-12-02T17:13:02.869Z,7.90
2017-12-02T17:15:30.326Z,7.90
2017-12-02T17:17:57.785Z,7.90
2017-12-02T17:20:25.245Z,7.80
2017-12-02T17:22:52.702Z,7.90
2017-12-02T17:25:20.182Z,7.90
2017-12-02T17:27:47.625Z,8.00
2017-12-02T17:30:15.856Z,7.90
2017-12-02T17:32:44.076Z,7.90
2017-12-02T17:35:12.293Z,7.90
2017-12-02T17:37:39.749Z,7.90
2017-12-02T17:40:07.206Z,7.90
2017-12-02T17:42:34.677Z,7.90
2017-12-02T17:45:02.171Z,7.90
2017-12-02T17:47:29.622Z,7.80
2017-12-02T17:49:57.086Z,7.90
2017-12-02T17:52:24.550Z,7.90
2017-12-02T17:54:52.774Z,7.80
2017-12-02T17:57:20.224Z,7.80
2017-12-02T17:59:47.681Z,7.90
2017-12-02T18:02:15.142Z,7.90
2017-12-02T18:04:42.601Z,8.00
2017-12-02T18:07:10.066Z,8.00
2017-12-02T18:09:37.524Z,7.90
2017-12-02T18:12:05.754Z,8.00
2017-12-02T18:14:33.971Z,8.00
2017-12-02T18:17:01.434Z,8.00
2017-12-02T18:19:29.654Z,7.90
2017-12-02T18:21:57.890Z,7.90
2017-12-02T18:24:25.346Z,7.90
2017-12-02T18:26:52.792Z,7.90
2017-12-02T18:29:20.261Z,7.90
2017-12-02T18:31:47.717Z,8.00
2017-12-02T18:34:15.179Z,8.10
2017-12-02T18:36:42.625Z,7.90
2017-12-02T18:39:10.084Z,8.00
2017-12-02T18:41:37.543Z,8.00
2017-12-02T18:44:05.766Z,8.10
2017-12-02T18:46:33.994Z,8.10
2017-12-02T18:49:01.458Z,8.00
2017-12-02T18:51:29.683Z,8.00
2017-12-02T18:53:57.906Z,7.90
2017-12-02T18:56:26.129Z,7.90
2017-12-02T18:58:53.612Z,7.90
2017-12-02T19:01:21.059Z,8.00
2017-12-02T19:03:49.273Z,8.10
2017-12-02T19:06:16.726Z,8.10
2017-12-02T19:08:44.216Z,8.00
2017-12-02T19:11:11.672Z,8.10
2017-12-02T19:13:39.126Z,8.10
2017-12-02T19:16:06.634Z,8.10
2017-12-02T19:18:34.847Z,8.20
2017-12-02T19:21:02.320Z,8.20
2017-12-02T19:23:29.778Z,8.10
2017-12-02T19:25:57.278Z,8.10
2017-12-02T19:28:24.724Z,8.10
2017-12-02T19:30:52.938Z,8.20
2017-12-02T19:33:20.389Z,8.10
2017-12-02T19:35:47.845Z,8.10
2017-12-02T19:38:15.298Z,8.10
2017-12-02T19:40:43.530Z,8.10
2017-12-02T19:43:11.754Z,8.10
2017-12-02T19:45:39.230Z,8.10
2017-12-02T19:48:06.706Z,8.10
2017-12-02T19:50:34.169Z,8.10
2017-12-02T19:53:02.403Z,8.10
2017-12-02T19:55:30.626Z,8.10
2017-12-02T19:57:58.852Z,8.20
2017-12-02T20:00:26.307Z,8.10
2017-12-02T20:02:53.785Z,8.10
2017-12-02T20:05:21.222Z,8.10
2017-12-02T20:07:48.678Z,8.10
2017-12-02T20:10:16.139Z,8.10
2017-12-02T20:12:43.598Z,8.10
2017-12-02T20:15:11.041Z,8.20
2017-12-02T20:17:38.510Z,8.20
2017-12-02T20:20:05.969Z,8.10
2017-12-02T20:22:33.432Z,8.20
2017-12-02T20:25:00.881Z,8.10
2017-12-02T20:27:28.338Z,8.20
2017-12-02T20:29:55.793Z,8.10
2017-12-02T20:32:23.253Z,8.20
2017-12-02T20:34:50.711Z,8.20
2017-12-02T20:37:18.190Z,8.20
2017-12-02T20:39:45.654Z,8.20
2017-12-02T20:42:13.106Z,8.10
2017-12-02T20:44:41.331Z,8.10
2017-12-02T20:47:08.785Z,8.10
2017-12-02T20:49:36.254Z,8.10
2017-12-02T20:52:03.713Z,8.10
2017-12-02T20:54:31.170Z,8.10
2017-12-02T20:56:58.617Z,8.00
2017-12-02T20:59:26.079Z,8.10
2017-12-02T21:01:53.525Z,8.10
2017-12-02T21:04:21.028Z,8.00
2017-12-02T21:06:48.429Z,8.00
2017-12-02T21:09:15.898Z,8.00
2017-12-02T21:11:43.354Z,8.00
2017-12-02T21:14:10.801Z,8.00
2017-12-02T21:16:39.023Z,7.90
2017-12-02T21:19:06.494Z,7.90
2017-12-02T21:21:33.952Z,8.00
2017-12-02T21:24:01.407Z,8.00
2017-12-02T21:26:28.849Z,8.00
2017-12-02T21:28:56.330Z,8.00
2017-12-02T21:31:23.794Z,8.00
2017-12-02T21:33:51.270Z,8.10
2017-12-02T21:36:19.473Z,8.00
2017-12-02T21:38:46.938Z,8.00
2017-12-02T21:41:14.401Z,8.10
2017-12-02T21:43:41.849Z,8.00
2017-12-02T21:46:09.314Z,8.00
2017-12-02T21:48:36.782Z,8.00
2017-12-02T21:51:04.262Z,7.90
2017-12-02T21:53:31.726Z,7.90
2017-12-02T21:55:59.173Z,8.00
2017-12-02T21:58:26.642Z,8.00
2017-12-02T22:00:54.102Z,7.90
2017-12-02T22:03:21.552Z,8.00
2017-12-02T22:05:49.011Z,8.00
2017-12-02T22:08:16.457Z,7.90
2017-12-02T22:10:43.930Z,7.90
2017-12-02T22:13:11.373Z,7.90
2017-12-02T22:15:38.829Z,7.90
2017-12-02T22:18:06.289Z,7.80
2017-12-02T22:20:33.750Z,7.70
2017-12-02T22:23:01.222Z,7.70
2017-12-02T22:25:28.685Z,7.70
2017-12-02T22:27:56.898Z,7.80
2017-12-02T22:30:24.365Z,7.80
2017-12-02T22:32:51.842Z,7.80
2017-12-02T22:35:19.302Z,7.80
2017-12-02T22:37:47.529Z,7.80
2017-12-02T22:40:14.991Z,7.80
2017-12-02T22:42:42.457Z,7.80
2017-12-02T22:45:09.910Z,7.70
2017-12-02T22:47:37.380Z,7.70
2017-12-02T22:50:04.834Z,7.70
2017-12-02T22:52:32.288Z,7.60
2017-12-02T22:54:59.750Z,7.50
2017-12-02T22:57:27.993Z,7.70
2017-12-02T22:59:56.205Z,7.50
2017-12-02T23:02:24.429Z,7.40
2017-12-02T23:04:51.882Z,7.40
2017-12-02T23:07:20.105Z,7.50
2017-12-02T23:09:47.574Z,7.50
2017-12-02T23:12:15.050Z,7.40
2017-12-02T23:14:42.489Z,7.30
2017-12-02T23:17:09.938Z,7.40
2017-12-02T23:19:37.389Z,7.50
2017-12-02T23:22:04.845Z,7.50
2017-12-02T23:24:33.072Z,7.60
2017-12-02T23:27:00.531Z,7.60
2017-12-02T23:29:28.002Z,7.60
2017-12-02T23:31:56.208Z,7.70
2017-12-02T23:34:23.677Z,7.70
2017-12-02T23:36:51.130Z,7.70
2017-12-02T23:39:19.358Z,7.70
2017-12-02T23:41:46.817Z,7.70
2017-12-02T23:44:14.277Z,7.70
2017-12-02T23:46:42.495Z,7.80
2017-12-02T23:49:09.948Z,7.80
2017-12-02T23:51:37.403Z,7.70
2017-12-02T23:54:04.869Z,7.70
2017-12-02T23:56:32.330Z,7.70
2017-12-02T23:58:59.817Z,7.70
